Time;durP1;ratioP1;P1;durP2;ratioP2;P2;SDS_P1;SDS_P2;PMS_P1;PMS_P2;Temp;Humidity;BMP_temperature;BMP_pressure;BME280_temperature;BME280_humidity;BME280_pressure;Samples;Min_cycle;Max_cycle;Signal;HPM_P1;HPM_P2
2022/01/18 00:01:43;;;;;;;14.07;2.93;;;;;;;;;;4985019;28;20474;-79
2022/01/18 00:04:11;;;;;;;18.07;3.97;;;;;;;;;;4987608;28;21004;-81
2022/01/18 00:06:40;;;;;;;10.80;3.60;;;;;;;;;;4985190;28;20483;-81
2022/01/18 00:09:07;;;;;;;19.90;3.53;;;;;;;;;;4986265;28;20470;-81
2022/01/18 00:11:40;;;;;;;14.37;5.20;;;;;;;;;;4986782;28;20960;-81
2022/01/18 00:14:13;;;;;;;17.13;4.63;;;;;;;;;;4985041;28;20555;-81
2022/01/18 00:17:00;;;;;;;14.87;5.67;;;;;;;;;;4986744;28;20483;-81
2022/01/18 00:19:27;;;;;;;16.63;7.83;;;;;;;;;;4988371;28;20494;-81
2022/01/18 00:22:07;;;;;;;20.77;8.23;;;;;;;;;;4989216;28;20475;-80
2022/01/18 00:24:34;;;;;;;35.17;10.33;;;;;;;;;;4987981;28;20466;-81
2022/01/18 00:27:00;;;;;;;22.70;8.80;;;;;;;;;;4986319;28;20483;-80
2022/01/18 00:29:28;;;;;;;29.23;9.33;;;;;;;;;;4985441;28;20901;-81
2022/01/18 00:32:05;;;;;;;22.40;8.70;;;;;;;;;;4986081;28;20488;-81
2022/01/18 00:34:36;;;;;;;28.53;10.50;;;;;;;;;;4986566;28;20536;-81
2022/01/18 00:37:24;;;;;;;21.10;9.10;;;;;;;;;;4988738;28;20485;-81
2022/01/18 00:39:50;;;;;;;28.87;9.60;;;;;;;;;;4985363;28;20511;-81
2022/01/18 00:42:17;;;;;;;22.70;9.63;;;;;;;;;;4985298;28;20483;-80
2022/01/18 00:44:43;;;;;;;19.73;8.27;;;;;;;;;;4983291;28;20470;-81
2022/01/18 00:47:09;;;;;;;13.77;6.77;;;;;;;;;;4984514;28;20479;-81
2022/01/18 00:49:42;;;;;;;25.23;8.83;;;;;;;;;;4988146;28;20467;-80
2022/01/18 00:52:08;;;;;;;19.30;4.73;;;;;;;;;;4987569;28;20474;-81
2022/01/18 00:54:39;;;;;;;18.67;4.57;;;;;;;;;;4986565;28;20992;-81
2022/01/18 00:57:06;;;;;;;24.77;3.90;;;;;;;;;;4985240;28;20496;-81
2022/01/18 00:59:32;;;;;;;12.03;3.10;;;;;;;;;;4987227;28;20469;-81
2022/01/18 01:01:59;;;;;;;8.90;3.23;;;;;;;;;;4985938;28;20474;-80
2022/01/18 01:04:28;;;;;;;16.87;2.53;;;;;;;;;;4987113;28;20478;-80
2022/01/18 01:06:56;;;;;;;8.80;2.70;;;;;;;;;;4987166;28;21062;-81
2022/01/18 01:09:22;;;;;;;12.33;4.00;;;;;;;;;;4985673;28;20470;-81
2022/01/18 01:11:49;;;;;;;18.87;3.30;;;;;;;;;;4984737;28;20486;-81
2022/01/18 01:14:20;;;;;;;10.30;2.93;;;;;;;;;;4982388;28;20478;-81
2022/01/18 01:16:59;;;;;;;11.57;3.40;;;;;;;;;;4984253;28;20560;-81
2022/01/18 01:19:46;;;;;;;12.47;2.47;;;;;;;;;;4984880;28;20454;-81
2022/01/18 01:36:33;;;;;;;7.10;1.87;;;;;;;;;;4980453;28;20496;-81
2022/01/18 01:42:03;;;;;;;7.00;2.23;;;;;;;;;;4988505;28;20542;-80
2022/01/18 01:44:41;;;;;;;10.00;2.17;;;;;;;;;;4984838;28;20486;-80
2022/01/18 01:47:09;;;;;;;13.43;4.67;;;;;;;;;;4988772;28;20606;-81
2022/01/18 01:49:35;;;;;;;10.70;3.00;;;;;;;;;;4984850;28;20462;-81
2022/01/18 01:52:04;;;;;;;11.20;2.20;;;;;;;;;;4986884;28;20477;-81
2022/01/18 01:54:31;;;;;;;8.10;1.80;;;;;;;;;;4988077;28;20510;-82
2022/01/18 01:56:58;;;;;;;15.50;3.60;;;;;;;;;;4986700;28;20473;-81
2022/01/18 01:59:24;;;;;;;10.30;3.20;;;;;;;;;;4988089;28;20830;-81
2022/01/18 02:01:50;;;;;;;13.80;4.50;;;;;;;;;;4987553;28;20487;-81
2022/01/18 02:04:17;;;;;;;13.27;6.20;;;;;;;;;;4986220;28;21028;-81
2022/01/18 02:06:43;;;;;;;18.80;7.10;;;;;;;;;;4986706;28;20489;-81
2022/01/18 02:09:10;;;;;;;17.10;7.03;;;;;;;;;;4986214;28;20577;-81
2022/01/18 02:11:37;;;;;;;18.43;7.80;;;;;;;;;;4986594;28;20540;-81
2022/01/18 02:14:05;;;;;;;18.93;5.60;;;;;;;;;;4987259;28;20470;-82
2022/01/18 02:22:02;;;;;;;19.33;3.50;;;;;;;;;;4986433;28;20486;-82
2022/01/18 02:24:28;;;;;;;13.60;3.80;;;;;;;;;;4983765;28;20932;-81
2022/01/18 02:26:54;;;;;;;17.23;4.10;;;;;;;;;;4983297;28;20483;-81
2022/01/18 02:29:20;;;;;;;16.80;4.10;;;;;;;;;;4989581;28;20455;-81
2022/01/18 02:31:47;;;;;;;19.10;4.80;;;;;;;;;;4980305;28;20522;-81
2022/01/18 02:34:15;;;;;;;14.67;3.20;;;;;;;;;;4985622;28;20483;-80
2022/01/18 02:36:42;;;;;;;19.57;4.50;;;;;;;;;;4987132;28;20475;-79
2022/01/18 02:39:10;;;;;;;12.67;3.33;;;;;;;;;;4985562;28;20505;-81
2022/01/18 02:41:37;;;;;;;20.40;5.10;;;;;;;;;;4987375;28;20474;-81
2022/01/18 02:44:04;;;;;;;25.43;3.50;;;;;;;;;;4987869;28;20484;-81
2022/01/18 02:46:31;;;;;;;16.00;4.17;;;;;;;;;;4988968;28;20505;-81
2022/01/18 02:48:58;;;;;;;20.63;5.17;;;;;;;;;;4984527;28;20489;-81
2022/01/18 02:51:24;;;;;;;29.20;5.60;;;;;;;;;;4985406;28;20478;-81
2022/01/18 02:54:00;;;;;;;13.07;5.03;;;;;;;;;;4988891;28;20624;-82
2022/01/18 02:56:29;;;;;;;16.57;5.07;;;;;;;;;;4986006;28;20477;-81
2022/01/18 02:59:02;;;;;;;19.60;7.20;;;;;;;;;;4988151;28;20455;-81
2022/01/18 03:04:13;;;;;;;25.20;11.10;;;;;;;;;;4987924;28;20470;-81
2022/01/18 03:06:39;;;;;;;22.17;10.03;;;;;;;;;;4989034;28;20942;-82
2022/01/18 03:09:06;;;;;;;22.87;9.30;;;;;;;;;;4988393;28;20969;-81
2022/01/18 03:11:33;;;;;;;19.30;8.27;;;;;;;;;;4990656;28;20478;-80
2022/01/18 03:14:00;;;;;;;14.57;6.70;;;;;;;;;;4983984;28;20487;-81
2022/01/18 03:16:26;;;;;;;18.50;7.47;;;;;;;;;;4984936;28;20483;-80
2022/01/18 03:18:52;;;;;;;15.57;6.37;;;;;;;;;;4987762;28;20447;-80
2022/01/18 03:21:19;;;;;;;23.40;7.77;;;;;;;;;;4988702;28;20972;-81
2022/01/18 03:23:50;;;;;;;29.00;7.50;;;;;;;;;;4988894;28;20487;-81
2022/01/18 03:26:18;;;;;;;26.20;6.17;;;;;;;;;;4988260;28;21048;-81
2022/01/18 03:28:45;;;;;;;20.67;7.67;;;;;;;;;;4987484;28;20486;-81
2022/01/18 03:31:12;;;;;;;23.57;7.47;;;;;;;;;;4982138;28;20536;-81
2022/01/18 03:33:38;;;;;;;18.40;5.80;;;;;;;;;;4987687;28;20878;-81
2022/01/18 03:36:05;;;;;;;23.10;6.93;;;;;;;;;;4985536;28;20475;-81
2022/01/18 03:38:32;;;;;;;28.03;9.37;;;;;;;;;;4988755;28;20458;-81
2022/01/18 03:40:58;;;;;;;40.77;9.97;;;;;;;;;;4985573;28;20467;-81
2022/01/18 03:43:24;;;;;;;26.60;10.50;;;;;;;;;;4986402;28;20992;-81
2022/01/18 03:45:55;;;;;;;24.00;9.60;;;;;;;;;;4987565;28;21011;-81
2022/01/18 03:48:28;;;;;;;32.47;10.90;;;;;;;;;;4985784;28;20510;-81
2022/01/18 03:50:55;;;;;;;32.90;7.87;;;;;;;;;;4990612;28;20463;-80
2022/01/18 03:53:22;;;;;;;36.23;8.27;;;;;;;;;;4989064;28;20498;-81
2022/01/18 03:55:48;;;;;;;32.20;6.73;;;;;;;;;;4988598;28;20521;-81
2022/01/18 03:58:14;;;;;;;30.47;7.47;;;;;;;;;;4988872;28;20443;-81
2022/01/18 04:00:41;;;;;;;38.57;9.60;;;;;;;;;;4987803;28;20454;-81
2022/01/18 04:03:08;;;;;;;37.63;7.80;;;;;;;;;;4986869;28;20483;-81
2022/01/18 04:05:35;;;;;;;22.00;6.90;;;;;;;;;;4988550;28;20459;-82
2022/01/18 04:08:01;;;;;;;27.70;6.17;;;;;;;;;;4986914;28;20462;-81
2022/01/18 04:10:27;;;;;;;25.60;7.17;;;;;;;;;;4987825;28;20453;-81
2022/01/18 04:12:56;;;;;;;28.83;5.50;;;;;;;;;;4988448;28;20474;-80
2022/01/18 04:15:22;;;;;;;26.57;7.87;;;;;;;;;;4986565;28;20468;-81
2022/01/18 04:18:06;;;;;;;34.00;7.10;;;;;;;;;;4987705;28;20573;-81
2022/01/18 04:26:05;;;;;;;20.00;5.10;;;;;;;;;;4989312;28;20477;-81
2022/01/18 04:28:37;;;;;;;33.70;7.67;;;;;;;;;;4989919;28;20444;-81
2022/01/18 04:31:05;;;;;;;23.33;6.80;;;;;;;;;;4985830;28;20497;-81
2022/01/18 04:33:31;;;;;;;29.57;7.20;;;;;;;;;;4985685;28;20487;-81
2022/01/18 04:35:59;;;;;;;37.83;7.60;;;;;;;;;;4987292;28;20463;-81
2022/01/18 04:38:26;;;;;;;24.03;6.77;;;;;;;;;;4987123;28;21097;-81
2022/01/18 04:40:52;;;;;;;32.43;6.50;;;;;;;;;;4987807;28;20459;-81
2022/01/18 04:43:24;;;;;;;27.70;6.60;;;;;;;;;;4987189;28;20482;-81
2022/01/18 04:48:36;;;;;;;33.60;6.53;;;;;;;;;;4984674;28;20971;-81
2022/01/18 04:51:07;;;;;;;33.27;7.00;;;;;;;;;;4987698;28;20458;-81
2022/01/18 04:53:34;;;;;;;31.90;6.13;;;;;;;;;;4988559;28;21112;-81
2022/01/18 04:56:04;;;;;;;37.03;6.40;;;;;;;;;;4986729;28;20487;-81
2022/01/18 04:58:30;;;;;;;27.57;5.30;;;;;;;;;;4990116;28;20518;-81
2022/01/18 05:00:58;;;;;;;22.63;5.70;;;;;;;;;;4988285;28;20467;-82
2022/01/18 05:03:24;;;;;;;41.20;6.70;;;;;;;;;;4987882;28;20219;-81
2022/01/18 05:05:53;;;;;;;25.23;6.23;;;;;;;;;;4986711;28;20507;-81
2022/01/18 05:08:21;;;;;;;21.47;5.50;;;;;;;;;;4986004;28;20529;-81
2022/01/18 05:10:52;;;;;;;30.23;6.20;;;;;;;;;;4985259;28;20469;-81
2022/01/18 05:13:35;;;;;;;38.43;7.10;;;;;;;;;;4986314;28;20521;-81
2022/01/18 05:16:19;;;;;;;28.90;5.73;;;;;;;;;;4984260;28;20481;-81
2022/01/18 05:21:32;;;;;;;25.53;5.90;;;;;;;;;;4986582;28;20509;-81
2022/01/18 05:24:00;;;;;;;25.90;5.97;;;;;;;;;;4989479;28;20501;-81
2022/01/18 05:26:28;;;;;;;30.70;6.57;;;;;;;;;;4989582;28;20475;-78
2022/01/18 05:28:54;;;;;;;25.87;6.40;;;;;;;;;;4988172;28;20565;-80
2022/01/18 05:31:20;;;;;;;28.93;5.80;;;;;;;;;;4983362;28;20487;-80
2022/01/18 05:33:47;;;;;;;40.30;7.40;;;;;;;;;;4987604;28;20522;-82
2022/01/18 05:36:14;;;;;;;31.90;7.57;;;;;;;;;;4987670;28;20477;-80
2022/01/18 05:38:40;;;;;;;24.97;6.03;;;;;;;;;;4986168;28;20473;-81
2022/01/18 05:41:09;;;;;;;21.23;4.73;;;;;;;;;;4986103;28;20494;-81
2022/01/18 05:43:36;;;;;;;25.70;6.60;;;;;;;;;;4988885;28;20462;-81
2022/01/18 05:46:03;;;;;;;26.43;5.43;;;;;;;;;;4985734;28;20470;-81
2022/01/18 05:48:29;;;;;;;30.60;7.10;;;;;;;;;;4986734;28;20502;-81
2022/01/18 05:50:59;;;;;;;31.43;6.17;;;;;;;;;;4989299;28;20975;-81
2022/01/18 05:53:25;;;;;;;28.53;6.90;;;;;;;;;;4988082;28;20851;-80
2022/01/18 05:55:52;;;;;;;23.40;6.17;;;;;;;;;;4989779;28;20953;-81
2022/01/18 05:58:19;;;;;;;41.10;9.23;;;;;;;;;;4988269;28;20482;-83
2022/01/18 06:00:52;;;;;;;31.87;7.20;;;;;;;;;;4986896;28;20485;-80
2022/01/18 06:03:26;;;;;;;26.87;7.87;;;;;;;;;;4987167;28;20514;-81
2022/01/18 06:08:36;;;;;;;40.90;6.50;;;;;;;;;;4988279;28;20453;-80
2022/01/18 06:11:03;;;;;;;27.07;5.97;;;;;;;;;;4985869;28;20473;-80
2022/01/18 06:13:30;;;;;;;37.77;6.63;;;;;;;;;;4988287;28;20490;-80
2022/01/18 06:15:57;;;;;;;29.37;7.87;;;;;;;;;;4985098;28;20475;-81
2022/01/18 06:18:23;;;;;;;33.93;6.53;;;;;;;;;;4984431;28;20451;-80
2022/01/18 06:20:49;;;;;;;22.17;6.27;;;;;;;;;;4987844;28;20466;-80
2022/01/18 06:23:15;;;;;;;29.43;6.93;;;;;;;;;;4986452;28;20472;-80
2022/01/18 06:25:42;;;;;;;24.17;6.33;;;;;;;;;;4985535;28;20876;-81
2022/01/18 06:28:08;;;;;;;26.83;6.50;;;;;;;;;;4982544;28;20481;-83
2022/01/18 06:30:36;;;;;;;29.07;5.80;;;;;;;;;;4983115;28;20560;-79
2022/01/18 06:33:02;;;;;;;33.03;7.40;;;;;;;;;;4984440;28;20548;-80
2022/01/18 06:35:29;;;;;;;36.13;7.23;;;;;;;;;;4984750;28;20451;-80
2022/01/18 06:37:55;;;;;;;32.33;5.70;;;;;;;;;;4984225;28;20517;-80
2022/01/18 06:40:21;;;;;;;31.53;7.50;;;;;;;;;;4984562;28;20454;-80
2022/01/18 06:42:48;;;;;;;26.83;5.90;;;;;;;;;;4985960;28;20511;-79
2022/01/18 06:45:15;;;;;;;29.20;7.27;;;;;;;;;;4987196;28;20466;-80
2022/01/18 06:47:43;;;;;;;27.37;6.27;;;;;;;;;;4985302;28;20491;-80
2022/01/18 06:50:10;;;;;;;28.43;6.17;;;;;;;;;;4983784;28;20463;-80
2022/01/18 06:52:37;;;;;;;24.90;6.30;;;;;;;;;;4986290;28;20479;-81
2022/01/18 06:55:03;;;;;;;27.67;6.70;;;;;;;;;;4984748;28;20502;-80
2022/01/18 06:57:30;;;;;;;33.60;5.80;;;;;;;;;;4985842;28;20630;-80
2022/01/18 06:59:56;;;;;;;34.83;5.30;;;;;;;;;;4985824;28;20870;-80
2022/01/18 07:02:23;;;;;;;24.57;4.80;;;;;;;;;;4984033;28;20479;-79
2022/01/18 07:04:50;;;;;;;18.63;4.27;;;;;;;;;;4985020;28;20462;-80
2022/01/18 07:07:17;;;;;;;26.47;5.10;;;;;;;;;;4984032;28;20489;-80
2022/01/18 07:09:44;;;;;;;22.50;5.40;;;;;;;;;;4984467;28;20463;-78
2022/01/18 07:12:11;;;;;;;18.30;4.90;;;;;;;;;;4985390;28;20501;-80
2022/01/18 07:14:38;;;;;;;21.80;5.13;;;;;;;;;;4985510;28;20494;-80
2022/01/18 07:17:05;;;;;;;20.93;4.67;;;;;;;;;;4985136;28;21017;-81
2022/01/18 07:19:32;;;;;;;18.93;7.50;;;;;;;;;;4985116;28;20514;-80
2022/01/18 07:22:00;;;;;;;20.07;4.27;;;;;;;;;;4985091;28;20482;-80
2022/01/18 07:24:37;;;;;;;28.27;4.80;;;;;;;;;;4986720;28;20464;-80
2022/01/18 07:27:04;;;;;;;24.30;5.13;;;;;;;;;;4981546;28;21006;-80
2022/01/18 07:29:30;;;;;;;32.07;6.40;;;;;;;;;;4979399;28;20459;-77
2022/01/18 07:31:56;;;;;;;28.07;7.40;;;;;;;;;;4981253;28;20534;-80
2022/01/18 07:34:23;;;;;;;29.10;7.40;;;;;;;;;;4984484;28;20513;-80
2022/01/18 07:36:49;;;;;;;34.40;9.10;;;;;;;;;;4983567;28;20479;-80
2022/01/18 07:39:16;;;;;;;19.00;10.00;;;;;;;;;;4984880;28;20450;-80
2022/01/18 07:41:43;;;;;;;30.10;12.30;;;;;;;;;;4984860;28;20497;-78
2022/01/18 07:44:09;;;;;;;31.30;10.83;;;;;;;;;;4986433;28;20474;-81
2022/01/18 07:46:35;;;;;;;30.80;12.80;;;;;;;;;;4983190;28;20475;-80
2022/01/18 07:49:01;;;;;;;20.90;9.70;;;;;;;;;;4987500;28;20474;-80
2022/01/18 07:51:28;;;;;;;20.00;6.17;;;;;;;;;;4985894;28;20470;-80
2022/01/18 07:53:54;;;;;;;24.13;7.80;;;;;;;;;;4987346;28;20548;-80
2022/01/18 07:56:22;;;;;;;27.40;6.03;;;;;;;;;;4986342;28;20529;-80
2022/01/18 07:58:48;;;;;;;27.63;4.70;;;;;;;;;;4980218;28;20474;-80
2022/01/18 08:01:14;;;;;;;23.17;5.20;;;;;;;;;;4985188;28;20900;-81
2022/01/18 08:03:40;;;;;;;21.83;4.90;;;;;;;;;;4985598;28;20474;-80
2022/01/18 08:06:07;;;;;;;19.13;4.73;;;;;;;;;;4986568;28;20526;-81
2022/01/18 08:08:33;;;;;;;30.60;5.87;;;;;;;;;;4985594;28;20455;-80
2022/01/18 08:11:00;;;;;;;16.47;3.90;;;;;;;;;;4982589;28;20482;-80
2022/01/18 08:13:36;;;;;;;19.23;4.30;;;;;;;;;;4985294;28;20548;-80
2022/01/18 08:16:21;;;;;;;19.27;4.93;;;;;;;;;;4985762;28;21144;-80
2022/01/18 08:18:48;;;;;;;18.77;4.30;;;;;;;;;;4982016;28;20592;-80
2022/01/18 08:21:14;;;;;;;21.93;5.40;;;;;;;;;;4983395;28;20479;-80
2022/01/18 08:23:40;;;;;;;14.73;4.23;;;;;;;;;;4985231;28;20475;-79
2022/01/18 08:26:06;;;;;;;17.33;4.50;;;;;;;;;;4985232;28;20926;-80
2022/01/18 08:28:34;;;;;;;16.97;4.70;;;;;;;;;;4982690;28;20814;-80
2022/01/18 08:31:00;;;;;;;15.23;5.07;;;;;;;;;;4982203;28;20575;-80
2022/01/18 08:33:27;;;;;;;31.63;5.10;;;;;;;;;;4983604;28;20491;-80
2022/01/18 08:35:53;;;;;;;15.43;4.87;;;;;;;;;;4984342;28;20471;-80
2022/01/18 08:38:20;;;;;;;18.53;4.47;;;;;;;;;;4986388;28;20503;-80
2022/01/18 08:40:46;;;;;;;17.77;4.83;;;;;;;;;;4985739;28;20484;-80
2022/01/18 08:43:12;;;;;;;18.83;5.00;;;;;;;;;;4983931;28;20474;-80
2022/01/18 08:45:40;;;;;;;23.07;5.20;;;;;;;;;;4984835;28;20846;-81
2022/01/18 08:48:06;;;;;;;19.20;5.47;;;;;;;;;;4986221;28;20481;-80
2022/01/18 08:50:34;;;;;;;25.80;6.63;;;;;;;;;;4983538;28;20529;-79
2022/01/18 08:53:00;;;;;;;23.60;5.57;;;;;;;;;;4983602;28;20529;-80
2022/01/18 08:55:26;;;;;;;28.30;4.93;;;;;;;;;;4984983;28;21572;-80
2022/01/18 08:57:52;;;;;;;28.57;5.03;;;;;;;;;;4983925;28;20963;-80
2022/01/18 09:00:19;;;;;;;21.70;5.03;;;;;;;;;;4986137;28;20486;-82
2022/01/18 09:02:47;;;;;;;20.17;5.00;;;;;;;;;;4987024;28;20459;-82
2022/01/18 09:05:13;;;;;;;31.93;5.40;;;;;;;;;;4984964;28;20502;-80
2022/01/18 09:07:40;;;;;;;27.37;5.57;;;;;;;;;;4987279;28;20522;-80
2022/01/18 09:10:09;;;;;;;19.03;6.10;;;;;;;;;;4982204;28;20997;-80
2022/01/18 09:12:35;;;;;;;26.03;5.37;;;;;;;;;;4985511;28;20464;-80
2022/01/18 09:15:04;;;;;;;14.57;4.87;;;;;;;;;;4983858;28;20540;-80
2022/01/18 09:17:30;;;;;;;17.93;5.43;;;;;;;;;;4983070;28;20498;-81
2022/01/18 09:19:58;;;;;;;20.10;4.40;;;;;;;;;;4982718;28;20534;-80
2022/01/18 09:22:24;;;;;;;13.43;4.27;;;;;;;;;;4984485;28;20464;-80
2022/01/18 09:24:51;;;;;;;25.60;4.80;;;;;;;;;;4984164;28;20482;-80
2022/01/18 09:27:18;;;;;;;22.90;5.50;;;;;;;;;;4979331;28;20462;-80
2022/01/18 09:29:44;;;;;;;9.30;4.00;;;;;;;;;;4985889;28;20532;-80
2022/01/18 09:32:11;;;;;;;16.53;4.87;;;;;;;;;;4982106;28;20576;-80
2022/01/18 09:34:37;;;;;;;21.03;5.07;;;;;;;;;;4979166;28;20517;-80
2022/01/18 09:37:05;;;;;;;21.73;5.13;;;;;;;;;;4984166;28;20462;-79
2022/01/18 09:39:31;;;;;;;23.70;6.00;;;;;;;;;;4979895;28;21055;-80
2022/01/18 09:42:02;;;;;;;23.07;5.80;;;;;;;;;;4982005;28;20510;-80
2022/01/18 09:44:29;;;;;;;17.17;5.67;;;;;;;;;;4977782;28;20486;-80
2022/01/18 09:46:55;;;;;;;15.10;3.77;;;;;;;;;;4982403;28;20549;-79
2022/01/18 09:49:22;;;;;;;20.07;4.80;;;;;;;;;;4981472;28;20529;-80
2022/01/18 09:51:49;;;;;;;26.63;4.87;;;;;;;;;;4982481;28;20485;-80
2022/01/18 09:54:16;;;;;;;15.23;4.33;;;;;;;;;;4983469;28;20475;-79
2022/01/18 09:56:43;;;;;;;24.87;4.40;;;;;;;;;;4983527;28;20455;-79
2022/01/18 09:59:09;;;;;;;15.97;4.53;;;;;;;;;;4983566;28;20463;-80
2022/01/18 10:01:36;;;;;;;17.40;4.60;;;;;;;;;;4980744;28;20506;-80
2022/01/18 10:04:17;;;;;;;17.93;5.23;;;;;;;;;;4981375;28;20899;-80
2022/01/18 10:06:44;;;;;;;17.70;5.00;;;;;;;;;;4986678;28;20513;-79
2022/01/18 10:09:11;;;;;;;12.93;3.97;;;;;;;;;;4983194;28;20478;-80
2022/01/18 10:11:58;;;;;;;18.80;4.87;;;;;;;;;;4984888;28;20464;-80
2022/01/18 10:14:25;;;;;;;21.47;4.60;;;;;;;;;;4985976;28;20478;-80
2022/01/18 10:16:51;;;;;;;16.73;4.73;;;;;;;;;;4986728;28;21175;-80
2022/01/18 10:19:29;;;;;;;15.83;3.90;;;;;;;;;;4984968;28;20474;-80
2022/01/18 10:22:06;;;;;;;16.80;5.10;;;;;;;;;;4985859;28;20483;-79
2022/01/18 10:24:32;;;;;;;17.10;6.60;;;;;;;;;;4985985;28;21069;-80
2022/01/18 10:27:00;;;;;;;17.33;5.10;;;;;;;;;;4979398;28;20901;-80
2022/01/18 10:29:27;;;;;;;15.50;4.27;;;;;;;;;;4980970;28;20478;-80
2022/01/18 10:31:57;;;;;;;23.90;5.50;;;;;;;;;;4983721;28;20459;-80
2022/01/18 10:34:28;;;;;;;14.53;5.20;;;;;;;;;;4983796;28;20475;-80
2022/01/18 10:36:58;;;;;;;19.20;5.33;;;;;;;;;;4984830;28;20463;-80
2022/01/18 10:39:25;;;;;;;20.17;5.43;;;;;;;;;;4982916;28;20467;-80
2022/01/18 10:41:52;;;;;;;16.37;4.27;;;;;;;;;;4982796;28;20513;-79
2022/01/18 10:44:20;;;;;;;15.13;4.93;;;;;;;;;;4982557;28;20895;-80
2022/01/18 10:46:48;;;;;;;16.80;4.40;;;;;;;;;;4983811;28;20459;-78
2022/01/18 10:49:26;;;;;;;12.47;4.37;;;;;;;;;;4979079;28;20478;-79
2022/01/18 10:51:57;;;;;;;17.50;4.27;;;;;;;;;;4982317;28;20844;-79
2022/01/18 10:54:33;;;;;;;15.37;3.53;;;;;;;;;;4979983;28;20474;-80
2022/01/18 10:57:02;;;;;;;10.60;3.93;;;;;;;;;;4984833;28;20454;-79
2022/01/18 10:59:29;;;;;;;10.90;3.83;;;;;;;;;;4983919;28;20554;-79
2022/01/18 11:02:06;;;;;;;12.70;3.57;;;;;;;;;;4980659;28;20467;-79
2022/01/18 11:04:32;;;;;;;10.10;3.23;;;;;;;;;;4982235;28;20482;-79
2022/01/18 11:07:00;;;;;;;7.90;3.30;;;;;;;;;;4984036;28;20968;-80
2022/01/18 11:09:26;;;;;;;13.53;4.27;;;;;;;;;;4984115;28;20919;-79
2022/01/18 11:11:52;;;;;;;16.67;5.33;;;;;;;;;;4984369;28;20450;-80
2022/01/18 11:14:21;;;;;;;26.80;5.60;;;;;;;;;;4982590;28;20494;-79
2022/01/18 11:16:49;;;;;;;11.90;4.63;;;;;;;;;;4979572;28;20625;-79
2022/01/18 11:19:30;;;;;;;22.23;6.77;;;;;;;;;;4982129;28;20470;-79
2022/01/18 11:21:57;;;;;;;18.00;6.33;;;;;;;;;;4983180;28;20438;-79
2022/01/18 11:24:24;;;;;;;24.97;7.50;;;;;;;;;;4982219;28;20565;-79
2022/01/18 11:26:51;;;;;;;9.50;4.53;;;;;;;;;;4981670;28;21019;-80
2022/01/18 11:29:18;;;;;;;21.17;6.37;;;;;;;;;;4982736;28;20474;-79
2022/01/18 11:31:45;;;;;;;12.67;5.00;;;;;;;;;;4982891;28;20447;-79
2022/01/18 11:34:14;;;;;;;13.20;4.30;;;;;;;;;;4976588;28;20487;-77
2022/01/18 11:36:42;;;;;;;13.47;5.00;;;;;;;;;;4980884;28;20456;-79
2022/01/18 11:39:11;;;;;;;16.33;4.40;;;;;;;;;;4982412;28;20458;-80
2022/01/18 11:41:37;;;;;;;15.50;6.97;;;;;;;;;;4979402;28;20474;-79
2022/01/18 11:44:11;;;;;;;15.97;4.07;;;;;;;;;;4982108;28;20467;-79
2022/01/18 11:46:40;;;;;;;13.07;4.30;;;;;;;;;;4979146;28;20485;-78
2022/01/18 11:49:07;;;;;;;14.93;4.90;;;;;;;;;;4979561;28;20463;-80
2022/01/18 11:51:39;;;;;;;14.50;4.10;;;;;;;;;;4982883;28;20968;-79
2022/01/18 11:54:26;;;;;;;6.73;3.47;;;;;;;;;;4981768;28;20479;-80
2022/01/18 11:56:52;;;;;;;10.13;3.93;;;;;;;;;;4981853;28;20455;-79
2022/01/18 11:59:20;;;;;;;15.73;4.33;;;;;;;;;;4981813;28;20478;-80
2022/01/18 12:01:50;;;;;;;7.17;3.30;;;;;;;;;;4981510;28;20463;-79
2022/01/18 12:04:31;;;;;;;13.93;4.53;;;;;;;;;;4976669;28;20477;-79
2022/01/18 12:06:59;;;;;;;9.90;3.40;;;;;;;;;;4980976;28;20471;-79
2022/01/18 12:09:37;;;;;;;10.27;4.00;;;;;;;;;;4977473;28;20506;-79
2022/01/18 12:12:04;;;;;;;10.43;4.57;;;;;;;;;;4982288;28;20465;-79
2022/01/18 12:14:33;;;;;;;9.83;4.40;;;;;;;;;;4981716;28;20475;-79
2022/01/18 12:17:12;;;;;;;7.70;4.40;;;;;;;;;;4982846;28;20923;-79
2022/01/18 12:19:42;;;;;;;10.63;5.23;;;;;;;;;;4982162;28;20479;-79
2022/01/18 12:22:10;;;;;;;11.60;4.00;;;;;;;;;;4982434;28;20455;-79
2022/01/18 12:24:36;;;;;;;6.97;4.03;;;;;;;;;;4981331;28;20476;-80
2022/01/18 12:27:17;;;;;;;13.63;4.00;;;;;;;;;;4982221;28;20458;-80
2022/01/18 12:30:00;;;;;;;14.83;6.00;;;;;;;;;;4981450;28;20851;-79
2022/01/18 12:32:51;;;;;;;13.30;5.10;;;;;;;;;;4979878;28;20466;-78
2022/01/18 12:35:18;;;;;;;15.37;5.50;;;;;;;;;;4982698;28;20478;-78
2022/01/18 12:37:48;;;;;;;12.77;4.97;;;;;;;;;;4981692;28;20461;-78
2022/01/18 12:40:33;;;;;;;11.97;5.53;;;;;;;;;;4978195;28;20488;-79
2022/01/18 12:45:45;;;;;;;17.23;6.77;;;;;;;;;;4964376;28;20478;-78
2022/01/18 12:48:14;;;;;;;12.97;7.00;;;;;;;;;;4958883;28;20477;-79
2022/01/18 12:50:41;;;;;;;18.30;7.00;;;;;;;;;;4961120;28;20484;-80
2022/01/18 12:53:09;;;;;;;11.47;7.63;;;;;;;;;;4961318;28;20480;-80
2022/01/18 12:55:38;;;;;;;13.10;6.57;;;;;;;;;;4959704;28;20531;-79
2022/01/18 12:58:08;;;;;;;11.93;7.03;;;;;;;;;;4958513;28;20696;-79
2022/01/18 13:00:39;;;;;;;17.50;7.37;;;;;;;;;;4957376;28;20475;-79
2022/01/18 13:03:06;;;;;;;11.73;6.20;;;;;;;;;;4958045;28;20488;-80
2022/01/18 13:05:33;;;;;;;19.20;8.67;;;;;;;;;;4956217;28;20474;-80
2022/01/18 13:08:00;;;;;;;13.57;7.97;;;;;;;;;;4958709;28;20463;-77
2022/01/18 13:10:35;;;;;;;15.83;7.40;;;;;;;;;;4958022;28;20480;-79
2022/01/18 13:13:02;;;;;;;13.47;6.73;;;;;;;;;;4959413;28;21075;-79
2022/01/18 13:15:40;;;;;;;16.03;7.20;;;;;;;;;;4958880;28;20472;-79
2022/01/18 13:23:52;;;;;;;12.17;6.60;;;;;;;;;;4961218;28;20491;-77
2022/01/18 13:26:28;;;;;;;9.03;6.27;;;;;;;;;;4977880;28;20454;-79
2022/01/18 13:28:55;;;;;;;12.57;5.50;;;;;;;;;;4978932;28;20475;-79
2022/01/18 13:31:22;;;;;;;9.10;5.37;;;;;;;;;;4978746;28;20470;-79
2022/01/18 13:33:49;;;;;;;8.50;3.90;;;;;;;;;;4971216;28;20483;-79
2022/01/18 13:36:16;;;;;;;7.80;4.10;;;;;;;;;;4977356;28;20486;-79
2022/01/18 13:38:42;;;;;;;8.53;3.40;;;;;;;;;;4983050;28;20466;-77
2022/01/18 13:41:08;;;;;;;7.33;3.80;;;;;;;;;;4962979;28;20479;-80
2022/01/18 13:43:36;;;;;;;6.73;5.57;;;;;;;;;;4960435;28;20491;-79
2022/01/18 13:46:02;;;;;;;9.10;4.03;;;;;;;;;;4963746;28;20479;-79
2022/01/18 13:48:30;;;;;;;13.33;4.47;;;;;;;;;;4963931;28;20468;-79
2022/01/18 13:50:57;;;;;;;12.80;3.90;;;;;;;;;;4964979;28;20487;-79
2022/01/18 13:53:26;;;;;;;7.90;3.30;;;;;;;;;;4963631;28;20483;-80
2022/01/18 13:55:53;;;;;;;4.43;4.00;;;;;;;;;;4962255;28;20480;-78
2022/01/18 13:58:23;;;;;;;5.80;4.13;;;;;;;;;;4962962;28;20463;-79
2022/01/18 14:00:51;;;;;;;6.97;3.80;;;;;;;;;;4965378;28;20479;-79
2022/01/18 14:03:30;;;;;;;9.87;6.00;;;;;;;;;;4964141;28;20574;-79
2022/01/18 14:05:57;;;;;;;7.73;4.80;;;;;;;;;;4964656;28;20476;-79
2022/01/18 14:08:31;;;;;;;7.97;4.40;;;;;;;;;;4962425;28;20457;-79
2022/01/18 14:11:01;;;;;;;10.80;4.80;;;;;;;;;;4964347;28;20474;-80
2022/01/18 14:13:28;;;;;;;15.40;5.57;;;;;;;;;;4963805;28;20563;-79
2022/01/18 14:15:55;;;;;;;6.63;5.17;;;;;;;;;;4965127;28;21058;-79
2022/01/18 14:18:22;;;;;;;15.07;5.57;;;;;;;;;;4962383;28;20464;-79
2022/01/18 14:20:48;;;;;;;9.23;5.80;;;;;;;;;;4963665;28;20484;-79
2022/01/18 14:23:18;;;;;;;6.60;5.20;;;;;;;;;;4966175;28;20481;-79
2022/01/18 14:25:46;;;;;;;10.63;5.97;;;;;;;;;;4966116;28;20474;-79
2022/01/18 14:28:14;;;;;;;11.00;6.10;;;;;;;;;;4963978;28;20456;-79
2022/01/18 14:30:43;;;;;;;9.70;5.40;;;;;;;;;;4963512;28;20531;-79
2022/01/18 14:33:11;;;;;;;12.70;6.40;;;;;;;;;;4964607;28;21027;-78
2022/01/18 14:35:38;;;;;;;10.00;6.47;;;;;;;;;;4964172;28;20870;-79
2022/01/18 14:38:06;;;;;;;11.30;5.43;;;;;;;;;;4965247;28;20479;-78
2022/01/18 14:40:37;;;;;;;14.17;7.67;;;;;;;;;;4965357;28;20472;-78
2022/01/18 14:43:10;;;;;;;9.70;5.83;;;;;;;;;;4965406;28;21028;-79
2022/01/18 14:45:52;;;;;;;11.93;6.27;;;;;;;;;;4967289;28;20464;-79
2022/01/18 14:48:20;;;;;;;11.53;5.53;;;;;;;;;;4964229;28;21124;-80
2022/01/18 14:50:47;;;;;;;8.83;4.50;;;;;;;;;;4966065;28;20972;-80
2022/01/18 14:53:13;;;;;;;7.13;5.53;;;;;;;;;;4964358;28;20483;-80
2022/01/18 14:55:39;;;;;;;9.27;5.47;;;;;;;;;;4965976;28;20472;-79
2022/01/18 14:58:06;;;;;;;6.77;4.07;;;;;;;;;;4964670;28;20475;-79
2022/01/18 15:00:33;;;;;;;11.23;4.77;;;;;;;;;;4965061;28;20484;-80
2022/01/18 15:02:59;;;;;;;8.93;4.97;;;;;;;;;;4965470;28;20484;-80
2022/01/18 15:05:28;;;;;;;13.20;5.10;;;;;;;;;;4962717;28;20528;-80
2022/01/18 15:07:55;;;;;;;11.43;4.77;;;;;;;;;;4965680;28;20535;-79
2022/01/18 15:10:22;;;;;;;8.47;4.30;;;;;;;;;;4963679;28;20542;-79
2022/01/18 15:12:50;;;;;;;6.43;4.00;;;;;;;;;;4962038;28;20547;-78
2022/01/18 15:15:18;;;;;;;8.40;4.90;;;;;;;;;;4962969;28;20484;-79
2022/01/18 15:17:44;;;;;;;8.27;5.40;;;;;;;;;;4963086;28;20453;-79
2022/01/18 15:20:10;;;;;;;10.40;5.00;;;;;;;;;;4961776;28;20833;-79
2022/01/18 15:22:38;;;;;;;9.37;4.77;;;;;;;;;;4961321;28;20465;-80
2022/01/18 15:25:05;;;;;;;8.20;5.00;;;;;;;;;;4961706;28;20473;-79
2022/01/18 15:27:31;;;;;;;14.73;5.23;;;;;;;;;;4960201;28;20886;-79